Terminal Aerodrome Forecast
Issued by NWS

Home | Current Version | Previous Version | Text Only | Print | Product List | Glossary On
Versions: 1 2 3 4 5 6 7 8 9 10 11 12 13 14 15 16 17 18 19 20 21 22 23 24 25 26 27 28 29 30
000
FTUS45 KBYZ 262336
TAFLVM
TAF
KLVM 262336Z 2700/2724 16007KT P6SM VCTS BKN100CB
     FM270400 23015KT P6SM VCSH BKN100
     FM271200 27012KT P6SM SCT070
     FM271800 28015G25KT P6SM VCSH BKN100=

USA.gov is the U.S. government's official web portal to all federal, state and local government web resources and services.